sensor_id;sensor_type;location;lat;lon;timestamp;temperature;humidity
25450;DHT22;13371;52.080;5.624;2022-08-03T00:01:35;24.10;86.10
25450;DHT22;13371;52.080;5.624;2022-08-03T00:04:01;24.20;86.10
25450;DHT22;13371;52.080;5.624;2022-08-03T00:06:27;24.20;86.20
25450;DHT22;13371;52.080;5.624;2022-08-03T00:08:52;24.20;86.00
25450;DHT22;13371;52.080;5.624;2022-08-03T00:11:18;24.30;85.80
25450;DHT22;13371;52.080;5.624;2022-08-03T00:13:44;24.10;86.40
25450;DHT22;13371;52.080;5.624;2022-08-03T00:16:09;24.00;86.60
25450;DHT22;13371;52.080;5.624;2022-08-03T00:18:36;23.90;87.10
25450;DHT22;13371;52.080;5.624;2022-08-03T00:21:03;23.70;87.60
25450;DHT22;13371;52.080;5.624;2022-08-03T00:23:29;23.60;88.00
25450;DHT22;13371;52.080;5.624;2022-08-03T00:25:55;23.70;87.80
25450;DHT22;13371;52.080;5.624;2022-08-03T00:28:22;23.70;87.90
25450;DHT22;13371;52.080;5.624;2022-08-03T00:30:48;23.80;87.40
25450;DHT22;13371;52.080;5.624;2022-08-03T00:33:14;23.80;87.30
25450;DHT22;13371;52.080;5.624;2022-08-03T00:35:41;23.60;88.40
25450;DHT22;13371;52.080;5.624;2022-08-03T00:38:07;23.40;88.70
25450;DHT22;13371;52.080;5.624;2022-08-03T00:40:33;23.30;89.20
25450;DHT22;13371;52.080;5.624;2022-08-03T00:43:04;23.50;88.80
25450;DHT22;13371;52.080;5.624;2022-08-03T00:45:34;23.60;88.50
25450;DHT22;13371;52.080;5.624;2022-08-03T00:48:00;23.60;88.30
25450;DHT22;13371;52.080;5.624;2022-08-03T00:50:28;23.60;88.20
25450;DHT22;13371;52.080;5.624;2022-08-03T00:52:57;23.60;88.10
25450;DHT22;13371;52.080;5.624;2022-08-03T00:55:23;23.60;88.10
25450;DHT22;13371;52.080;5.624;2022-08-03T00:57:50;23.30;89.20
25450;DHT22;13371;52.080;5.624;2022-08-03T01:00:19;23.20;89.30
25450;DHT22;13371;52.080;5.624;2022-08-03T01:02:46;23.20;89.60
25450;DHT22;13371;52.080;5.624;2022-08-03T01:05:12;23.10;89.60
25450;DHT22;13371;52.080;5.624;2022-08-03T01:08:07;23.20;89.60
25450;DHT22;13371;52.080;5.624;2022-08-03T01:11:14;23.20;89.70
25450;DHT22;13371;52.080;5.624;2022-08-03T01:25:14;23.20;90.00
25450;DHT22;13371;52.080;5.624;2022-08-03T01:30:14;23.10;89.60
25450;DHT22;13371;52.080;5.624;2022-08-03T01:33:02;23.00;90.20
25450;DHT22;13371;52.080;5.624;2022-08-03T01:35:35;23.10;90.20
25450;DHT22;13371;52.080;5.624;2022-08-03T01:38:11;23.00;90.40
25450;DHT22;13371;52.080;5.624;2022-08-03T01:40:39;23.10;90.40
25450;DHT22;13371;52.080;5.624;2022-08-03T01:43:05;23.00;90.50
25450;DHT22;13371;52.080;5.624;2022-08-03T01:45:33;22.80;90.60
25450;DHT22;13371;52.080;5.624;2022-08-03T01:48:00;23.00;90.60
25450;DHT22;13371;52.080;5.624;2022-08-03T01:50:28;22.90;90.50
25450;DHT22;13371;52.080;5.624;2022-08-03T01:52:55;22.90;90.40
25450;DHT22;13371;52.080;5.624;2022-08-03T01:55:22;22.90;90.50
25450;DHT22;13371;52.080;5.624;2022-08-03T01:57:51;23.00;90.30
25450;DHT22;13371;52.080;5.624;2022-08-03T02:00:18;23.00;90.20
25450;DHT22;13371;52.080;5.624;2022-08-03T02:02:47;23.00;90.20
25450;DHT22;13371;52.080;5.624;2022-08-03T02:05:14;23.00;90.30
25450;DHT22;13371;52.080;5.624;2022-08-03T02:07:41;22.90;90.40
25450;DHT22;13371;52.080;5.624;2022-08-03T02:10:09;22.80;90.70
25450;DHT22;13371;52.080;5.624;2022-08-03T02:12:37;22.80;90.60
25450;DHT22;13371;52.080;5.624;2022-08-03T02:15:04;22.70;90.70
25450;DHT22;13371;52.080;5.624;2022-08-03T02:17:32;22.80;90.60
25450;DHT22;13371;52.080;5.624;2022-08-03T02:20:00;22.50;91.30
25450;DHT22;13371;52.080;5.624;2022-08-03T02:22:27;22.30;91.60
25450;DHT22;13371;52.080;5.624;2022-08-03T02:24:53;22.60;91.40
25450;DHT22;13371;52.080;5.624;2022-08-03T02:27:22;22.50;91.50
25450;DHT22;13371;52.080;5.624;2022-08-03T02:29:52;22.50;91.50
25450;DHT22;13371;52.080;5.624;2022-08-03T02:32:23;22.50;91.50
25450;DHT22;13371;52.080;5.624;2022-08-03T02:34:55;22.50;91.50
25450;DHT22;13371;52.080;5.624;2022-08-03T02:37:24;22.50;91.70
25450;DHT22;13371;52.080;5.624;2022-08-03T02:39:53;22.70;91.40
25450;DHT22;13371;52.080;5.624;2022-08-03T02:42:23;22.70;91.30
25450;DHT22;13371;52.080;5.624;2022-08-03T02:44:53;22.80;91.20
25450;DHT22;13371;52.080;5.624;2022-08-03T02:47:20;22.60;91.50
25450;DHT22;13371;52.080;5.624;2022-08-03T02:49:47;22.70;91.40
25450;DHT22;13371;52.080;5.624;2022-08-03T02:52:14;22.60;91.50
25450;DHT22;13371;52.080;5.624;2022-08-03T02:54:42;22.70;91.60
25450;DHT22;13371;52.080;5.624;2022-08-03T02:57:10;22.70;91.30
25450;DHT22;13371;52.080;5.624;2022-08-03T02:59:38;22.60;91.60
25450;DHT22;13371;52.080;5.624;2022-08-03T03:02:05;22.60;91.70
25450;DHT22;13371;52.080;5.624;2022-08-03T03:04:32;22.50;91.80
25450;DHT22;13371;52.080;5.624;2022-08-03T03:06:58;22.60;91.70
25450;DHT22;13371;52.080;5.624;2022-08-03T03:09:24;22.60;91.50
25450;DHT22;13371;52.080;5.624;2022-08-03T03:11:51;22.50;91.90
25450;DHT22;13371;52.080;5.624;2022-08-03T03:14:19;22.50;92.00
25450;DHT22;13371;52.080;5.624;2022-08-03T03:16:46;22.40;92.00
25450;DHT22;13371;52.080;5.624;2022-08-03T03:19:13;22.20;92.50
25450;DHT22;13371;52.080;5.624;2022-08-03T03:21:42;21.90;92.80
25450;DHT22;13371;52.080;5.624;2022-08-03T03:24:08;22.10;93.00
25450;DHT22;13371;52.080;5.624;2022-08-03T03:26:35;22.00;93.40
25450;DHT22;13371;52.080;5.624;2022-08-03T03:29:01;21.90;93.30
25450;DHT22;13371;52.080;5.624;2022-08-03T03:31:27;22.10;93.10
25450;DHT22;13371;52.080;5.624;2022-08-03T03:33:55;22.10;93.20
25450;DHT22;13371;52.080;5.624;2022-08-03T03:36:22;22.10;92.90
25450;DHT22;13371;52.080;5.624;2022-08-03T03:38:47;22.20;92.90
25450;DHT22;13371;52.080;5.624;2022-08-03T03:41:13;22.00;92.70
25450;DHT22;13371;52.080;5.624;2022-08-03T03:43:39;22.10;92.80
25450;DHT22;13371;52.080;5.624;2022-08-03T03:46:05;22.10;92.80
25450;DHT22;13371;52.080;5.624;2022-08-03T03:48:31;22.20;92.70
25450;DHT22;13371;52.080;5.624;2022-08-03T03:50:57;22.10;92.80
25450;DHT22;13371;52.080;5.624;2022-08-03T03:53:23;22.10;92.70
25450;DHT22;13371;52.080;5.624;2022-08-03T03:55:51;22.20;92.60
25450;DHT22;13371;52.080;5.624;2022-08-03T03:58:19;22.30;92.50
25450;DHT22;13371;52.080;5.624;2022-08-03T04:00:45;22.30;92.40
25450;DHT22;13371;52.080;5.624;2022-08-03T04:03:11;22.20;92.70
25450;DHT22;13371;52.080;5.624;2022-08-03T04:05:37;22.30;92.50
25450;DHT22;13371;52.080;5.624;2022-08-03T04:08:21;22.30;92.40
25450;DHT22;13371;52.080;5.624;2022-08-03T04:11:08;22.20;92.80
25450;DHT22;13371;52.080;5.624;2022-08-03T04:13:43;22.20;92.60
25450;DHT22;13371;52.080;5.624;2022-08-03T04:16:13;22.20;92.60
25450;DHT22;13371;52.080;5.624;2022-08-03T04:18:41;22.10;92.80
25450;DHT22;13371;52.080;5.624;2022-08-03T04:21:11;22.20;92.70
25450;DHT22;13371;52.080;5.624;2022-08-03T04:23:42;22.40;92.40
25450;DHT22;13371;52.080;5.624;2022-08-03T04:26:11;22.30;92.30
25450;DHT22;13371;52.080;5.624;2022-08-03T04:28:40;22.40;92.20
25450;DHT22;13371;52.080;5.624;2022-08-03T04:31:09;22.20;92.30
25450;DHT22;13371;52.080;5.624;2022-08-03T04:33:36;22.30;92.70
25450;DHT22;13371;52.080;5.624;2022-08-03T04:36:05;22.30;92.50
25450;DHT22;13371;52.080;5.624;2022-08-03T04:38:39;22.40;92.50
25450;DHT22;13371;52.080;5.624;2022-08-03T04:41:06;22.50;92.50
25450;DHT22;13371;52.080;5.624;2022-08-03T04:43:33;22.20;92.90
25450;DHT22;13371;52.080;5.624;2022-08-03T04:46:00;22.30;92.80
25450;DHT22;13371;52.080;5.624;2022-08-03T04:48:27;22.00;93.10
25450;DHT22;13371;52.080;5.624;2022-08-03T04:50:53;21.90;93.60
25450;DHT22;13371;52.080;5.624;2022-08-03T04:53:20;21.70;93.80
25450;DHT22;13371;52.080;5.624;2022-08-03T04:55:45;21.90;93.90
25450;DHT22;13371;52.080;5.624;2022-08-03T04:58:11;21.90;93.80
25450;DHT22;13371;52.080;5.624;2022-08-03T05:00:37;22.00;93.60
25450;DHT22;13371;52.080;5.624;2022-08-03T05:03:03;21.90;93.70
25450;DHT22;13371;52.080;5.624;2022-08-03T05:05:29;22.10;93.70
25450;DHT22;13371;52.080;5.624;2022-08-03T05:07:54;22.00;93.60
25450;DHT22;13371;52.080;5.624;2022-08-03T05:10:20;22.30;93.50
25450;DHT22;13371;52.080;5.624;2022-08-03T05:12:47;22.20;93.30
25450;DHT22;13371;52.080;5.624;2022-08-03T05:15:13;22.10;93.70
25450;DHT22;13371;52.080;5.624;2022-08-03T05:17:39;22.20;93.50
25450;DHT22;13371;52.080;5.624;2022-08-03T05:20:06;22.30;93.30
25450;DHT22;13371;52.080;5.624;2022-08-03T05:22:34;22.30;93.10
25450;DHT22;13371;52.080;5.624;2022-08-03T05:25:00;22.50;92.90
25450;DHT22;13371;52.080;5.624;2022-08-03T05:27:26;22.60;92.60
25450;DHT22;13371;52.080;5.624;2022-08-03T05:29:52;22.50;92.60
25450;DHT22;13371;52.080;5.624;2022-08-03T05:32:18;22.40;92.90
25450;DHT22;13371;52.080;5.624;2022-08-03T05:34:43;22.40;92.80
25450;DHT22;13371;52.080;5.624;2022-08-03T05:37:09;22.60;92.80
25450;DHT22;13371;52.080;5.624;2022-08-03T05:39:35;22.70;92.70
25450;DHT22;13371;52.080;5.624;2022-08-03T05:42:01;22.90;92.40
25450;DHT22;13371;52.080;5.624;2022-08-03T05:44:27;23.00;92.30
25450;DHT22;13371;52.080;5.624;2022-08-03T05:46:53;23.10;92.00
25450;DHT22;13371;52.080;5.624;2022-08-03T05:49:19;23.10;91.70
25450;DHT22;13371;52.080;5.624;2022-08-03T05:51:45;23.20;91.90
25450;DHT22;13371;52.080;5.624;2022-08-03T05:54:11;23.20;91.80
25450;DHT22;13371;52.080;5.624;2022-08-03T05:56:37;23.20;91.70
25450;DHT22;13371;52.080;5.624;2022-08-03T05:59:05;23.30;91.90
25450;DHT22;13371;52.080;5.624;2022-08-03T06:01:31;23.10;92.00
25450;DHT22;13371;52.080;5.624;2022-08-03T06:03:57;23.00;91.90
25450;DHT22;13371;52.080;5.624;2022-08-03T06:06:23;23.10;91.80
25450;DHT22;13371;52.080;5.624;2022-08-03T06:08:49;23.10;92.20
25450;DHT22;13371;52.080;5.624;2022-08-03T06:11:15;22.80;92.40
25450;DHT22;13371;52.080;5.624;2022-08-03T06:13:41;22.60;92.70
25450;DHT22;13371;52.080;5.624;2022-08-03T06:16:07;22.70;92.60
25450;DHT22;13371;52.080;5.624;2022-08-03T06:18:34;22.70;92.30
25450;DHT22;13371;52.080;5.624;2022-08-03T06:21:00;22.50;92.70
25450;DHT22;13371;52.080;5.624;2022-08-03T06:23:26;22.60;92.80
25450;DHT22;13371;52.080;5.624;2022-08-03T06:25:51;22.50;92.60
25450;DHT22;13371;52.080;5.624;2022-08-03T06:28:17;22.30;93.30
25450;DHT22;13371;52.080;5.624;2022-08-03T06:30:43;22.70;92.90
25450;DHT22;13371;52.080;5.624;2022-08-03T06:33:09;22.50;92.90
25450;DHT22;13371;52.080;5.624;2022-08-03T06:35:35;22.80;92.80
25450;DHT22;13371;52.080;5.624;2022-08-03T06:38:01;22.90;92.70
25450;DHT22;13371;52.080;5.624;2022-08-03T06:40:27;23.10;92.40
25450;DHT22;13371;52.080;5.624;2022-08-03T06:42:57;23.40;91.80
25450;DHT22;13371;52.080;5.624;2022-08-03T06:45:24;23.40;91.60
25450;DHT22;13371;52.080;5.624;2022-08-03T06:47:59;23.50;91.70
25450;DHT22;13371;52.080;5.624;2022-08-03T06:50:26;23.50;91.10
25450;DHT22;13371;52.080;5.624;2022-08-03T06:52:52;23.30;91.60
25450;DHT22;13371;52.080;5.624;2022-08-03T06:55:18;23.60;91.40
25450;DHT22;13371;52.080;5.624;2022-08-03T06:57:43;23.30;91.70
25450;DHT22;13371;52.080;5.624;2022-08-03T07:00:09;23.40;91.70
25450;DHT22;13371;52.080;5.624;2022-08-03T07:02:37;23.30;91.50
25450;DHT22;13371;52.080;5.624;2022-08-03T07:05:03;23.50;91.60
25450;DHT22;13371;52.080;5.624;2022-08-03T07:07:29;23.80;91.40
25450;DHT22;13371;52.080;5.624;2022-08-03T07:09:54;23.90;91.00
25450;DHT22;13371;52.080;5.624;2022-08-03T07:12:20;24.10;90.70
25450;DHT22;13371;52.080;5.624;2022-08-03T07:14:46;24.20;90.10
25450;DHT22;13371;52.080;5.624;2022-08-03T07:17:11;24.20;90.40
25450;DHT22;13371;52.080;5.624;2022-08-03T07:19:37;24.40;90.00
25450;DHT22;13371;52.080;5.624;2022-08-03T07:22:03;24.60;89.70
25450;DHT22;13371;52.080;5.624;2022-08-03T07:24:29;24.60;89.50
25450;DHT22;13371;52.080;5.624;2022-08-03T07:26:54;24.70;90.00
25450;DHT22;13371;52.080;5.624;2022-08-03T07:29:20;24.70;89.10
25450;DHT22;13371;52.080;5.624;2022-08-03T07:31:46;24.80;88.80
25450;DHT22;13371;52.080;5.624;2022-08-03T07:34:12;24.90;88.70
25450;DHT22;13371;52.080;5.624;2022-08-03T07:36:37;25.00;87.80
25450;DHT22;13371;52.080;5.624;2022-08-03T07:39:04;24.90;88.20
25450;DHT22;13371;52.080;5.624;2022-08-03T07:41:29;25.00;88.00
25450;DHT22;13371;52.080;5.624;2022-08-03T07:43:56;25.20;88.30
25450;DHT22;13371;52.080;5.624;2022-08-03T07:46:22;25.40;88.50
25450;DHT22;13371;52.080;5.624;2022-08-03T07:48:48;25.60;87.40
25450;DHT22;13371;52.080;5.624;2022-08-03T07:51:13;25.40;86.60
25450;DHT22;13371;52.080;5.624;2022-08-03T07:53:39;25.40;86.60
25450;DHT22;13371;52.080;5.624;2022-08-03T07:56:05;25.60;87.40
25450;DHT22;13371;52.080;5.624;2022-08-03T07:58:31;25.50;85.70
25450;DHT22;13371;52.080;5.624;2022-08-03T08:00:57;25.30;87.00
25450;DHT22;13371;52.080;5.624;2022-08-03T08:03:22;25.50;86.60
25450;DHT22;13371;52.080;5.624;2022-08-03T08:05:48;25.60;86.90
25450;DHT22;13371;52.080;5.624;2022-08-03T08:08:14;25.70;86.70
25450;DHT22;13371;52.080;5.624;2022-08-03T08:10:40;25.80;85.90
25450;DHT22;13371;52.080;5.624;2022-08-03T08:13:05;26.20;86.40
25450;DHT22;13371;52.080;5.624;2022-08-03T08:15:31;26.00;85.50
25450;DHT22;13371;52.080;5.624;2022-08-03T08:17:59;26.10;86.00
25450;DHT22;13371;52.080;5.624;2022-08-03T08:20:31;26.30;85.80
25450;DHT22;13371;52.080;5.624;2022-08-03T08:22:59;26.40;84.40
25450;DHT22;13371;52.080;5.624;2022-08-03T08:25:25;26.70;84.60
25450;DHT22;13371;52.080;5.624;2022-08-03T08:27:51;26.70;82.30
25450;DHT22;13371;52.080;5.624;2022-08-03T08:30:19;26.50;83.10
25450;DHT22;13371;52.080;5.624;2022-08-03T08:32:45;26.50;83.90
25450;DHT22;13371;52.080;5.624;2022-08-03T08:35:11;26.60;83.40
25450;DHT22;13371;52.080;5.624;2022-08-03T08:37:38;26.80;83.30
25450;DHT22;13371;52.080;5.624;2022-08-03T08:40:06;26.60;82.70
25450;DHT22;13371;52.080;5.624;2022-08-03T08:42:32;26.60;82.10
25450;DHT22;13371;52.080;5.624;2022-08-03T08:44:59;26.70;81.50
25450;DHT22;13371;52.080;5.624;2022-08-03T08:47:29;26.60;81.90
25450;DHT22;13371;52.080;5.624;2022-08-03T08:49:57;26.80;82.30
25450;DHT22;13371;52.080;5.624;2022-08-03T08:52:27;27.10;80.60
25450;DHT22;13371;52.080;5.624;2022-08-03T08:54:59;27.40;80.00
25450;DHT22;13371;52.080;5.624;2022-08-03T08:57:28;27.50;80.70
25450;DHT22;13371;52.080;5.624;2022-08-03T08:59:55;27.50;78.50
25450;DHT22;13371;52.080;5.624;2022-08-03T09:02:27;27.70;79.30
25450;DHT22;13371;52.080;5.624;2022-08-03T09:04:54;27.90;78.70
25450;DHT22;13371;52.080;5.624;2022-08-03T09:07:20;27.80;77.20
25450;DHT22;13371;52.080;5.624;2022-08-03T09:09:46;27.80;77.50
25450;DHT22;13371;52.080;5.624;2022-08-03T09:12:13;27.90;77.60
25450;DHT22;13371;52.080;5.624;2022-08-03T09:14:38;27.80;77.50
25450;DHT22;13371;52.080;5.624;2022-08-03T09:17:04;27.80;77.10
25450;DHT22;13371;52.080;5.624;2022-08-03T09:19:34;27.70;76.90
25450;DHT22;13371;52.080;5.624;2022-08-03T09:24:38;28.10;76.50
25450;DHT22;13371;52.080;5.624;2022-08-03T09:27:18;27.90;76.60
25450;DHT22;13371;52.080;5.624;2022-08-03T09:29:47;28.20;76.60
25450;DHT22;13371;52.080;5.624;2022-08-03T09:32:13;28.10;77.30
25450;DHT22;13371;52.080;5.624;2022-08-03T09:34:39;28.60;75.40
25450;DHT22;13371;52.080;5.624;2022-08-03T09:37:13;28.80;72.90
25450;DHT22;13371;52.080;5.624;2022-08-03T09:39:40;28.80;72.90
25450;DHT22;13371;52.080;5.624;2022-08-03T09:42:13;29.00;74.10
25450;DHT22;13371;52.080;5.624;2022-08-03T09:44:41;29.40;72.20
25450;DHT22;13371;52.080;5.624;2022-08-03T09:47:08;29.20;72.70
25450;DHT22;13371;52.080;5.624;2022-08-03T09:49:36;29.20;72.20
25450;DHT22;13371;52.080;5.624;2022-08-03T09:52:15;28.90;73.30
25450;DHT22;13371;52.080;5.624;2022-08-03T09:54:43;29.10;73.60
25450;DHT22;13371;52.080;5.624;2022-08-03T09:57:26;29.20;72.30
25450;DHT22;13371;52.080;5.624;2022-08-03T09:59:52;29.70;73.40
25450;DHT22;13371;52.080;5.624;2022-08-03T10:02:25;30.10;71.20
25450;DHT22;13371;52.080;5.624;2022-08-03T10:04:51;30.30;70.30
25450;DHT22;13371;52.080;5.624;2022-08-03T10:07:19;30.40;68.10
25450;DHT22;13371;52.080;5.624;2022-08-03T10:09:57;30.10;69.10
25450;DHT22;13371;52.080;5.624;2022-08-03T10:12:24;30.30;69.40
25450;DHT22;13371;52.080;5.624;2022-08-03T10:14:51;30.20;68.70
25450;DHT22;13371;52.080;5.624;2022-08-03T10:17:17;30.20;68.60
25450;DHT22;13371;52.080;5.624;2022-08-03T10:19:44;30.60;68.40
25450;DHT22;13371;52.080;5.624;2022-08-03T10:22:17;30.70;68.60
25450;DHT22;13371;52.080;5.624;2022-08-03T10:24:58;30.70;68.20
25450;DHT22;13371;52.080;5.624;2022-08-03T10:27:32;30.90;69.60
25450;DHT22;13371;52.080;5.624;2022-08-03T10:30:00;30.60;65.40
25450;DHT22;13371;52.080;5.624;2022-08-03T10:35:15;30.80;66.60
25450;DHT22;13371;52.080;5.624;2022-08-03T10:37:43;30.50;66.90
25450;DHT22;13371;52.080;5.624;2022-08-03T10:40:13;30.90;66.50
25450;DHT22;13371;52.080;5.624;2022-08-03T10:42:45;30.70;65.90
25450;DHT22;13371;52.080;5.624;2022-08-03T10:45:18;30.90;65.60
25450;DHT22;13371;52.080;5.624;2022-08-03T10:47:48;31.00;65.60
25450;DHT22;13371;52.080;5.624;2022-08-03T10:50:15;31.30;64.90
25450;DHT22;13371;52.080;5.624;2022-08-03T10:53:01;31.40;66.40
25450;DHT22;13371;52.080;5.624;2022-08-03T10:55:45;31.30;64.60
25450;DHT22;13371;52.080;5.624;2022-08-03T11:01:04;31.50;63.80
25450;DHT22;13371;52.080;5.624;2022-08-03T11:03:31;31.40;64.50
25450;DHT22;13371;52.080;5.624;2022-08-03T11:06:20;31.60;62.50
25450;DHT22;13371;52.080;5.624;2022-08-03T11:08:47;31.50;63.10
25450;DHT22;13371;52.080;5.624;2022-08-03T11:14:17;31.50;62.30
25450;DHT22;13371;52.080;5.624;2022-08-03T11:16:49;31.30;62.90
25450;DHT22;13371;52.080;5.624;2022-08-03T11:19:18;30.80;63.60
25450;DHT22;13371;52.080;5.624;2022-08-03T11:35:15;32.10;64.50
25450;DHT22;13371;52.080;5.624;2022-08-03T11:40:48;32.20;60.30
25450;DHT22;13371;52.080;5.624;2022-08-03T11:43:42;32.20;59.50
25450;DHT22;13371;52.080;5.624;2022-08-03T11:46:12;32.50;59.20
25450;DHT22;13371;52.080;5.624;2022-08-03T11:48:49;32.30;58.50
25450;DHT22;13371;52.080;5.624;2022-08-03T11:51:24;32.10;59.30
25450;DHT22;13371;52.080;5.624;2022-08-03T11:53:52;31.90;59.20
25450;DHT22;13371;52.080;5.624;2022-08-03T11:56:18;32.30;59.50
25450;DHT22;13371;52.080;5.624;2022-08-03T11:58:49;32.10;59.40
25450;DHT22;13371;52.080;5.624;2022-08-03T12:01:18;32.50;60.90
25450;DHT22;13371;52.080;5.624;2022-08-03T12:03:44;32.70;57.90
25450;DHT22;13371;52.080;5.624;2022-08-03T12:06:11;32.70;56.40
25450;DHT22;13371;52.080;5.624;2022-08-03T12:08:38;32.70;57.00
25450;DHT22;13371;52.080;5.624;2022-08-03T12:11:05;32.60;58.10
25450;DHT22;13371;52.080;5.624;2022-08-03T12:13:47;32.80;58.40
25450;DHT22;13371;52.080;5.624;2022-08-03T12:16:18;33.30;57.40
25450;DHT22;13371;52.080;5.624;2022-08-03T12:18:45;33.40;57.40
25450;DHT22;13371;52.080;5.624;2022-08-03T12:21:18;32.90;56.20
25450;DHT22;13371;52.080;5.624;2022-08-03T12:23:48;32.70;56.20
25450;DHT22;13371;52.080;5.624;2022-08-03T12:26:14;32.70;56.50
25450;DHT22;13371;52.080;5.624;2022-08-03T12:28:47;32.80;55.50
25450;DHT22;13371;52.080;5.624;2022-08-03T12:31:13;32.90;54.80
25450;DHT22;13371;52.080;5.624;2022-08-03T12:36:32;32.90;54.40
25450;DHT22;13371;52.080;5.624;2022-08-03T12:39:04;32.80;55.90
25450;DHT22;13371;52.080;5.624;2022-08-03T12:41:32;32.80;54.40
25450;DHT22;13371;52.080;5.624;2022-08-03T12:44:00;32.70;54.90
25450;DHT22;13371;52.080;5.624;2022-08-03T12:49:10;32.80;56.10
25450;DHT22;13371;52.080;5.624;2022-08-03T12:54:19;33.30;55.30
25450;DHT22;13371;52.080;5.624;2022-08-03T12:57:05;33.10;54.80
25450;DHT22;13371;52.080;5.624;2022-08-03T12:59:36;33.10;55.50
25450;DHT22;13371;52.080;5.624;2022-08-03T13:02:03;33.10;55.30
25450;DHT22;13371;52.080;5.624;2022-08-03T13:04:31;32.80;57.20
25450;DHT22;13371;52.080;5.624;2022-08-03T13:07:02;33.00;56.60
25450;DHT22;13371;52.080;5.624;2022-08-03T13:09:39;33.10;55.90
25450;DHT22;13371;52.080;5.624;2022-08-03T13:12:06;32.80;57.30
25450;DHT22;13371;52.080;5.624;2022-08-03T13:14:33;32.70;57.10
25450;DHT22;13371;52.080;5.624;2022-08-03T13:17:01;32.90;58.90
25450;DHT22;13371;52.080;5.624;2022-08-03T13:19:27;32.80;58.30
25450;DHT22;13371;52.080;5.624;2022-08-03T13:21:53;32.80;57.70
25450;DHT22;13371;52.080;5.624;2022-08-03T13:24:18;32.70;59.00
25450;DHT22;13371;52.080;5.624;2022-08-03T13:26:44;32.90;58.70
25450;DHT22;13371;52.080;5.624;2022-08-03T13:29:10;33.20;58.70
25450;DHT22;13371;52.080;5.624;2022-08-03T13:31:35;33.40;59.70
25450;DHT22;13371;52.080;5.624;2022-08-03T13:34:01;33.60;58.40
25450;DHT22;13371;52.080;5.624;2022-08-03T13:36:27;33.50;57.50
25450;DHT22;13371;52.080;5.624;2022-08-03T13:38:53;33.60;58.60
25450;DHT22;13371;52.080;5.624;2022-08-03T13:41:18;33.70;58.30
25450;DHT22;13371;52.080;5.624;2022-08-03T13:43:44;33.70;57.20
25450;DHT22;13371;52.080;5.624;2022-08-03T13:46:10;33.50;58.80
25450;DHT22;13371;52.080;5.624;2022-08-03T13:48:35;33.30;58.70
25450;DHT22;13371;52.080;5.624;2022-08-03T13:51:01;33.20;58.80
25450;DHT22;13371;52.080;5.624;2022-08-03T13:53:27;33.40;58.50
25450;DHT22;13371;52.080;5.624;2022-08-03T13:55:53;33.70;59.10
25450;DHT22;13371;52.080;5.624;2022-08-03T13:58:18;33.50;57.80
25450;DHT22;13371;52.080;5.624;2022-08-03T14:00:44;33.60;58.60
25450;DHT22;13371;52.080;5.624;2022-08-03T14:03:10;33.60;58.30
25450;DHT22;13371;52.080;5.624;2022-08-03T14:05:36;33.60;58.90
25450;DHT22;13371;52.080;5.624;2022-08-03T14:08:03;33.60;58.80
25450;DHT22;13371;52.080;5.624;2022-08-03T14:10:33;33.30;58.90
25450;DHT22;13371;52.080;5.624;2022-08-03T14:12:59;32.80;59.70
25450;DHT22;13371;52.080;5.624;2022-08-03T14:15:25;32.70;60.60
25450;DHT22;13371;52.080;5.624;2022-08-03T14:17:53;32.80;60.30
25450;DHT22;13371;52.080;5.624;2022-08-03T14:20:18;33.00;60.30
25450;DHT22;13371;52.080;5.624;2022-08-03T14:22:44;32.90;59.80
25450;DHT22;13371;52.080;5.624;2022-08-03T14:25:09;32.80;60.80
25450;DHT22;13371;52.080;5.624;2022-08-03T14:27:35;32.70;60.50
25450;DHT22;13371;52.080;5.624;2022-08-03T14:30:02;32.80;61.00
25450;DHT22;13371;52.080;5.624;2022-08-03T14:32:28;32.70;61.80
25450;DHT22;13371;52.080;5.624;2022-08-03T14:34:53;32.70;60.90
25450;DHT22;13371;52.080;5.624;2022-08-03T14:37:19;32.90;59.90
25450;DHT22;13371;52.080;5.624;2022-08-03T14:39:45;32.50;60.50
25450;DHT22;13371;52.080;5.624;2022-08-03T14:42:12;32.80;60.60
25450;DHT22;13371;52.080;5.624;2022-08-03T14:44:37;33.00;60.70
25450;DHT22;13371;52.080;5.624;2022-08-03T14:47:03;33.30;60.00
25450;DHT22;13371;52.080;5.624;2022-08-03T14:49:29;33.40;59.60
25450;DHT22;13371;52.080;5.624;2022-08-03T14:51:55;33.20;59.30
25450;DHT22;13371;52.080;5.624;2022-08-03T14:54:21;33.30;59.80
25450;DHT22;13371;52.080;5.624;2022-08-03T14:56:47;33.00;60.10
25450;DHT22;13371;52.080;5.624;2022-08-03T14:59:13;33.40;59.90
25450;DHT22;13371;52.080;5.624;2022-08-03T15:01:38;33.40;59.10
25450;DHT22;13371;52.080;5.624;2022-08-03T15:04:04;33.70;59.30
25450;DHT22;13371;52.080;5.624;2022-08-03T15:06:30;33.80;58.40
25450;DHT22;13371;52.080;5.624;2022-08-03T15:08:55;33.70;59.70
25450;DHT22;13371;52.080;5.624;2022-08-03T15:11:21;33.80;58.90
25450;DHT22;13371;52.080;5.624;2022-08-03T15:13:47;33.90;59.30
25450;DHT22;13371;52.080;5.624;2022-08-03T15:16:15;34.00;58.80
25450;DHT22;13371;52.080;5.624;2022-08-03T15:18:40;34.10;58.40
25450;DHT22;13371;52.080;5.624;2022-08-03T15:21:06;34.20;58.60
25450;DHT22;13371;52.080;5.624;2022-08-03T15:23:32;34.70;58.60
25450;DHT22;13371;52.080;5.624;2022-08-03T15:25:58;34.70;56.60
25450;DHT22;13371;52.080;5.624;2022-08-03T15:28:23;34.20;56.80
25450;DHT22;13371;52.080;5.624;2022-08-03T15:30:51;34.20;57.90
25450;DHT22;13371;52.080;5.624;2022-08-03T15:33:17;34.20;56.90
25450;DHT22;13371;52.080;5.624;2022-08-03T15:35:42;34.00;57.20
25450;DHT22;13371;52.080;5.624;2022-08-03T15:38:08;33.60;57.80
25450;DHT22;13371;52.080;5.624;2022-08-03T15:40:34;33.80;57.50
25450;DHT22;13371;52.080;5.624;2022-08-03T15:43:00;34.10;59.00
25450;DHT22;13371;52.080;5.624;2022-08-03T15:45:26;34.30;58.00
25450;DHT22;13371;52.080;5.624;2022-08-03T15:47:52;34.40;57.90
25450;DHT22;13371;52.080;5.624;2022-08-03T15:50:18;34.50;58.20
25450;DHT22;13371;52.080;5.624;2022-08-03T15:52:43;34.40;56.80
25450;DHT22;13371;52.080;5.624;2022-08-03T15:55:09;34.40;56.20
25450;DHT22;13371;52.080;5.624;2022-08-03T15:57:35;34.20;56.80
25450;DHT22;13371;52.080;5.624;2022-08-03T16:00:06;34.30;56.70
25450;DHT22;13371;52.080;5.624;2022-08-03T16:02:33;34.50;56.90
25450;DHT22;13371;52.080;5.624;2022-08-03T16:04:59;34.20;55.70
25450;DHT22;13371;52.080;5.624;2022-08-03T16:07:25;33.90;57.40
25450;DHT22;13371;52.080;5.624;2022-08-03T16:10:11;33.90;57.70
25450;DHT22;13371;52.080;5.624;2022-08-03T16:12:37;34.00;57.20
25450;DHT22;13371;52.080;5.624;2022-08-03T16:15:04;34.20;57.60
25450;DHT22;13371;52.080;5.624;2022-08-03T16:17:30;34.00;57.00
25450;DHT22;13371;52.080;5.624;2022-08-03T16:19:56;34.20;56.80
25450;DHT22;13371;52.080;5.624;2022-08-03T16:22:22;34.40;57.70
25450;DHT22;13371;52.080;5.624;2022-08-03T16:24:49;34.30;56.90